createdAt,value
2022-10-19T00:01:41.990Z,101328.44
2022-10-19T00:04:09.322Z,101323.19
2022-10-19T00:06:36.870Z,101340.88
2022-10-19T00:09:08.926Z,101333.34
2022-10-19T00:11:37.722Z,101336.78
2022-10-19T00:14:05.437Z,101343.50
2022-10-19T00:16:34.367Z,101333.88
2022-10-19T00:19:02.609Z,101341.38
2022-10-19T00:21:30.475Z,101346.66
2022-10-19T00:23:57.778Z,101342.91
2022-10-19T00:26:25.237Z,101350.88
2022-10-19T00:28:56.128Z,101342.88
2022-10-19T00:31:24.222Z,101352.81
2022-10-19T00:33:51.482Z,101348.84
2022-10-19T00:36:21.370Z,101349.13
2022-10-19T00:38:48.964Z,101348.63
2022-10-19T00:41:16.870Z,101352.34
2022-10-19T00:44:10.732Z,101354.53
2022-10-19T00:46:42.355Z,101363.47
2022-10-19T00:49:17.918Z,101359.97
2022-10-19T00:51:47.089Z,101358.91
2022-10-19T00:54:15.773Z,101358.69
2022-10-19T00:56:44.427Z,101367.56
2022-10-19T00:59:13.756Z,101381.22
2022-10-19T01:01:41.863Z,101376.44
2022-10-19T01:04:09.474Z,101374.81
2022-10-19T01:06:37.279Z,101382.69
2022-10-19T01:09:04.555Z,101377.84
2022-10-19T01:11:44.008Z,101389.13
2022-10-19T01:14:20.475Z,101388.38
2022-10-19T01:17:03.939Z,101395.47
2022-10-19T01:19:31.148Z,101400.47
2022-10-19T01:22:10.380Z,101396.28
2022-10-19T01:24:40.614Z,101397.88
2022-10-19T01:27:08.098Z,101393.81
2022-10-19T01:29:58.659Z,101401.44
2022-10-19T01:32:28.696Z,101384.41
2022-10-19T01:34:55.853Z,101408.34
2022-10-19T01:37:29.034Z,101402.13
2022-10-19T01:40:15.091Z,101404.63
2022-10-19T01:42:49.613Z,101404.16
2022-10-19T01:45:16.934Z,101408.47
2022-10-19T01:47:51.958Z,101404.91
2022-10-19T01:50:24.803Z,101402.59
2022-10-19T01:52:52.873Z,101400.38
2022-10-19T01:55:21.593Z,101401.19
2022-10-19T01:58:09.731Z,101404.19
2022-10-19T02:00:38.989Z,101403.16
2022-10-19T02:03:06.738Z,101406.22
2022-10-19T02:05:35.944Z,101401.94
2022-10-19T02:08:05.855Z,101406.38
2022-10-19T02:10:34.848Z,101401.34
2022-10-19T02:13:02.916Z,101411.19
2022-10-19T02:15:31.947Z,101411.28
2022-10-19T02:18:00.709Z,101420.00
2022-10-19T02:20:28.534Z,101425.53
2022-10-19T02:22:55.828Z,101435.59
2022-10-19T02:25:24.327Z,101434.00
2022-10-19T02:27:53.009Z,101437.44
2022-10-19T02:30:21.799Z,101438.31
2022-10-19T02:32:49.712Z,101454.31
2022-10-19T02:35:17.070Z,101448.56
2022-10-19T02:37:44.573Z,101455.38
2022-10-19T02:40:12.487Z,101455.63
2022-10-19T02:42:50.571Z,101458.69
2022-10-19T02:45:21.844Z,101458.31
2022-10-19T02:47:58.307Z,101449.06
2022-10-19T02:50:25.905Z,101457.41
2022-10-19T02:52:53.159Z,101459.41
2022-10-19T02:55:20.571Z,101464.09
2022-10-19T02:57:47.769Z,101473.06
2022-10-19T03:00:15.192Z,101480.22
2022-10-19T03:02:42.564Z,101472.03
2022-10-19T03:05:09.932Z,101479.16
2022-10-19T03:07:37.395Z,101490.75
2022-10-19T03:10:05.072Z,101478.72
2022-10-19T03:12:32.319Z,101483.81
2022-10-19T03:14:59.596Z,101486.31
2022-10-19T03:17:26.830Z,101496.38
2022-10-19T03:19:54.201Z,101501.25
2022-10-19T03:22:21.393Z,101499.06
2022-10-19T03:24:48.808Z,101506.09
2022-10-19T03:27:15.997Z,101508.75
2022-10-19T03:29:43.245Z,101510.69
2022-10-19T03:32:10.599Z,101508.44
2022-10-19T03:34:37.958Z,101519.63
2022-10-19T03:37:05.182Z,101525.03
2022-10-19T03:39:32.575Z,101516.84
2022-10-19T03:41:59.795Z,101518.44
2022-10-19T03:44:27.097Z,101507.00
2022-10-19T03:46:54.466Z,101512.25
2022-10-19T03:49:21.976Z,101524.78
2022-10-19T03:51:49.175Z,101533.91
2022-10-19T03:54:17.130Z,101525.13
2022-10-19T03:56:44.612Z,101527.75
2022-10-19T03:59:13.275Z,101526.66
2022-10-19T04:01:41.847Z,101529.63
2022-10-19T04:04:14.795Z,101542.94
2022-10-19T04:06:43.976Z,101538.84
2022-10-19T04:09:15.774Z,101547.09
2022-10-19T04:11:43.058Z,101552.94
2022-10-19T04:14:19.310Z,101546.72
2022-10-19T04:16:54.604Z,101555.50
2022-10-19T04:19:21.760Z,101550.84
2022-10-19T04:21:49.313Z,101548.88
2022-10-19T04:24:18.486Z,101559.19
2022-10-19T04:26:53.870Z,101560.22
2022-10-19T04:29:24.934Z,101568.16
2022-10-19T04:31:55.321Z,101574.38
2022-10-19T04:34:22.823Z,101565.03
2022-10-19T04:36:50.068Z,101571.66
2022-10-19T04:39:17.360Z,101574.59
2022-10-19T04:41:44.745Z,101575.66
2022-10-19T04:44:12.070Z,101576.94
2022-10-19T04:46:39.316Z,101578.59
2022-10-19T04:49:07.079Z,101593.41
2022-10-19T04:51:34.622Z,101582.16
2022-10-19T04:54:02.574Z,101588.47
2022-10-19T04:56:31.010Z,101590.41
2022-10-19T04:58:59.083Z,101584.19
2022-10-19T05:01:27.094Z,101587.97
2022-10-19T05:04:01.538Z,101588.59
2022-10-19T05:06:29.697Z,101594.03
2022-10-19T05:08:57.015Z,101602.06
2022-10-19T05:11:24.413Z,101595.75
2022-10-19T05:13:51.918Z,101599.19
2022-10-19T05:16:20.490Z,101609.50
2022-10-19T05:18:49.034Z,101587.44
2022-10-19T05:21:16.963Z,101604.47
2022-10-19T05:23:44.482Z,101593.16
2022-10-19T05:26:13.584Z,101604.88
2022-10-19T05:28:41.298Z,101601.78
2022-10-19T05:31:10.487Z,101606.63
2022-10-19T05:33:38.721Z,101607.31
2022-10-19T05:36:12.924Z,101605.06
2022-10-19T05:38:40.754Z,101618.00
2022-10-19T05:41:07.947Z,101617.06
2022-10-19T05:43:35.133Z,101620.66
2022-10-19T05:46:06.168Z,101621.72
2022-10-19T05:48:34.988Z,101629.13
2022-10-19T05:51:03.012Z,101633.59
2022-10-19T05:53:30.570Z,101631.53
2022-10-19T05:55:57.886Z,101636.66
2022-10-19T05:58:25.339Z,101636.03
2022-10-19T06:00:56.923Z,101637.19
2022-10-19T06:03:24.680Z,101638.59
2022-10-19T06:05:52.615Z,101652.72
2022-10-19T06:08:21.511Z,101661.75
2022-10-19T06:10:49.238Z,101660.28
2022-10-19T06:13:17.164Z,101660.03
2022-10-19T06:15:44.395Z,101659.50
2022-10-19T06:18:12.343Z,101664.97
2022-10-19T06:20:41.155Z,101670.06
2022-10-19T06:23:09.264Z,101672.44
2022-10-19T06:25:36.525Z,101688.75
2022-10-19T06:28:04.510Z,101688.09
2022-10-19T06:30:31.872Z,101687.84
2022-10-19T06:32:59.677Z,101696.81
2022-10-19T06:35:26.957Z,101706.34
2022-10-19T06:37:56.058Z,101707.19
2022-10-19T06:40:23.913Z,101715.19
2022-10-19T06:42:51.290Z,101713.72
2022-10-19T06:45:18.598Z,101724.72
2022-10-19T06:50:18.235Z,101728.00
2022-10-19T06:52:46.154Z,101741.81
2022-10-19T06:55:13.909Z,101750.31
2022-10-19T06:57:41.232Z,101758.72
2022-10-19T07:00:09.260Z,101761.59
2022-10-19T07:02:36.476Z,101760.72
2022-10-19T07:05:06.214Z,101768.75
2022-10-19T07:07:35.328Z,101776.22
2022-10-19T07:10:03.079Z,101774.53
2022-10-19T07:12:30.395Z,101774.84
2022-10-19T07:14:58.219Z,101773.09
2022-10-19T07:17:25.477Z,101776.75
2022-10-19T07:19:53.887Z,101781.78
2022-10-19T07:22:27.869Z,101777.88
2022-10-19T07:24:55.645Z,101787.22
2022-10-19T07:27:22.904Z,101784.81
2022-10-19T07:29:50.432Z,101786.09
2022-10-19T07:32:17.668Z,101796.31
2022-10-19T07:34:44.882Z,101792.84
2022-10-19T07:37:12.380Z,101800.66
2022-10-19T07:39:39.809Z,101806.50
2022-10-19T07:42:08.312Z,101803.03
2022-10-19T07:44:36.453Z,101796.00
2022-10-19T07:47:04.973Z,101802.56
2022-10-19T07:49:32.359Z,101804.56
2022-10-19T07:52:01.433Z,101809.53
2022-10-19T07:54:30.433Z,101808.44
2022-10-19T07:56:57.726Z,101805.38
2022-10-19T07:59:25.011Z,101801.63
2022-10-19T08:01:54.322Z,101806.06
2022-10-19T08:07:09.095Z,101811.91
2022-10-19T08:09:53.693Z,101791.22
2022-10-19T08:12:21.505Z,101818.66
2022-10-19T08:14:48.889Z,101824.47
2022-10-19T08:17:17.535Z,101826.00
2022-10-19T08:19:45.553Z,101831.44
2022-10-19T08:22:12.800Z,101818.50
2022-10-19T08:24:40.147Z,101830.81
2022-10-19T08:27:07.421Z,101827.75
2022-10-19T08:29:34.660Z,101836.44
2022-10-19T08:32:02.137Z,101831.44
2022-10-19T08:34:29.376Z,101829.25
2022-10-19T08:36:56.639Z,101844.66
2022-10-19T08:39:23.858Z,101847.72
2022-10-19T08:41:56.958Z,101846.84
2022-10-19T08:44:39.510Z,101839.44
2022-10-19T08:47:25.584Z,101852.59
2022-10-19T08:49:52.894Z,101843.59
2022-10-19T08:52:22.425Z,101849.22
2022-10-19T08:54:57.746Z,101854.66
2022-10-19T08:57:25.012Z,101846.03
2022-10-19T08:59:57.547Z,101878.72
2022-10-19T09:02:35.796Z,101891.06
2022-10-19T09:05:12.436Z,101887.84
2022-10-19T09:07:45.864Z,101886.97
2022-10-19T09:10:17.017Z,101877.41
2022-10-19T09:12:59.226Z,101881.78
2022-10-19T09:15:47.246Z,101890.56
2022-10-19T09:18:20.520Z,101899.78
2022-10-19T09:21:11.172Z,101906.06
2022-10-19T09:23:39.869Z,101901.25
2022-10-19T09:26:20.213Z,101909.56
2022-10-19T09:28:53.709Z,101906.94
2022-10-19T09:31:31.457Z,101910.06
2022-10-19T09:34:12.198Z,101916.34
2022-10-19T09:36:57.278Z,101921.03
2022-10-19T09:39:28.549Z,101915.13
2022-10-19T09:41:58.139Z,101910.63
2022-10-19T09:44:26.830Z,101915.38
2022-10-19T09:47:17.909Z,101919.75
2022-10-19T09:49:46.531Z,101921.91
2022-10-19T09:52:22.860Z,101925.72
2022-10-19T09:54:51.383Z,101925.47
2022-10-19T09:57:22.813Z,101925.16
2022-10-19T09:59:52.377Z,101921.03
2022-10-19T10:02:21.639Z,101936.03
2022-10-19T10:04:56.520Z,101938.84
2022-10-19T10:07:27.320Z,101942.97
2022-10-19T10:09:54.657Z,101943.19
2022-10-19T10:12:22.630Z,101939.91
2022-10-19T10:14:50.136Z,101937.94
2022-10-19T10:17:22.428Z,101947.91
2022-10-19T10:20:03.509Z,101943.84
2022-10-19T10:22:32.761Z,101944.69
2022-10-19T10:25:00.337Z,101944.03
2022-10-19T10:27:33.191Z,101946.88
2022-10-19T10:30:05.281Z,101962.09
2022-10-19T10:32:36.911Z,101958.16
2022-10-19T10:35:06.613Z,101964.66
2022-10-19T10:37:37.460Z,101963.16
2022-10-19T10:40:05.342Z,101963.16
2022-10-19T10:42:35.580Z,101957.06
2022-10-19T10:45:04.179Z,101967.59
2022-10-19T10:47:31.718Z,101972.50
2022-10-19T10:50:01.431Z,101968.78
2022-10-19T10:52:31.679Z,101982.25
2022-10-19T10:54:59.050Z,101975.31
2022-10-19T10:57:29.035Z,101972.72
2022-10-19T11:00:12.189Z,101974.00
2022-10-19T11:02:48.884Z,101981.19
2022-10-19T11:05:26.649Z,101978.13
2022-10-19T11:08:01.033Z,101983.59
2022-10-19T11:10:39.401Z,101983.59
2022-10-19T11:13:16.270Z,101983.13
2022-10-19T11:16:02.056Z,101985.09
2022-10-19T11:18:41.131Z,101982.25
2022-10-19T11:21:23.671Z,101988.34
2022-10-19T11:24:03.327Z,101988.13
2022-10-19T11:27:03.038Z,101995.53
2022-10-19T11:29:38.351Z,101993.78
2022-10-19T11:32:11.852Z,101985.53
2022-10-19T11:34:53.664Z,101991.16
2022-10-19T11:37:26.293Z,101991.81
2022-10-19T11:40:05.656Z,101995.50
2022-10-19T11:42:51.569Z,101996.38
2022-10-19T11:45:36.809Z,101999.19
2022-10-19T11:48:04.034Z,102000.28
2022-10-19T11:50:37.395Z,102001.56
2022-10-19T11:53:23.383Z,102000.84
2022-10-19T11:55:51.278Z,102012.34
2022-10-19T11:58:37.290Z,102000.38
2022-10-19T12:01:07.571Z,102012.84
2022-10-19T12:03:34.825Z,102011.16
2022-10-19T12:06:31.378Z,102006.69
2022-10-19T12:09:09.784Z,102001.69
2022-10-19T12:11:43.229Z,102009.81
2022-10-19T12:14:13.568Z,102010.72
2022-10-19T12:16:42.958Z,102013.75
2022-10-19T12:19:39.620Z,102015.38
2022-10-19T12:22:10.369Z,102015.91
2022-10-19T12:24:37.680Z,102016.03
2022-10-19T12:27:05.244Z,102011.25
2022-10-19T12:29:34.419Z,102018.41
2022-10-19T12:32:03.135Z,102023.53
2022-10-19T12:34:36.474Z,102027.41
2022-10-19T12:37:13.002Z,102029.78
2022-10-19T12:39:52.187Z,102027.59
2022-10-19T12:42:31.707Z,102020.69
2022-10-19T12:45:18.477Z,102015.06
2022-10-19T12:48:04.352Z,102027.84
2022-10-19T12:50:58.231Z,102023.94
2022-10-19T12:53:38.125Z,102023.72
2022-10-19T12:56:05.422Z,102027.00
2022-10-19T12:58:46.662Z,102016.56
2022-10-19T13:01:20.924Z,102031.13
2022-10-19T13:03:50.258Z,102024.56
2022-10-19T13:06:18.013Z,102022.88
2022-10-19T13:08:55.681Z,102028.50
2022-10-19T13:11:23.176Z,102031.13
2022-10-19T13:13:51.192Z,102032.63
2022-10-19T13:16:30.673Z,102045.34
2022-10-19T13:19:04.258Z,102044.97
2022-10-19T13:21:51.685Z,102051.94
2022-10-19T13:24:24.912Z,102050.31
2022-10-19T13:27:04.254Z,102046.25
2022-10-19T13:29:37.468Z,102049.31
2022-10-19T13:32:23.550Z,102052.59
2022-10-19T13:34:50.952Z,102065.84
2022-10-19T13:37:18.756Z,102062.16
2022-10-19T13:39:47.205Z,102067.91
2022-10-19T13:42:26.074Z,102062.34
2022-10-19T13:44:53.736Z,102069.53
2022-10-19T13:47:29.635Z,102069.50
2022-10-19T13:50:10.480Z,102071.47
2022-10-19T13:52:55.905Z,102079.34
2022-10-19T13:55:28.645Z,102085.16
2022-10-19T13:58:14.164Z,102081.31
2022-10-19T14:01:00.321Z,102082.56
2022-10-19T14:03:45.015Z,102085.94
2022-10-19T14:06:24.649Z,102091.63
2022-10-19T14:09:13.212Z,102087.53
2022-10-19T14:11:41.811Z,102083.84
2022-10-19T14:14:08.986Z,102090.38
2022-10-19T14:16:46.012Z,102095.56
2022-10-19T14:19:14.019Z,102103.38
2022-10-19T14:21:41.656Z,102100.63
2022-10-19T14:24:27.160Z,102096.00
2022-10-19T14:26:55.754Z,102093.19
2022-10-19T14:29:23.143Z,102100.13
2022-10-19T14:31:50.405Z,102101.38
2022-10-19T14:34:17.762Z,102111.38
2022-10-19T14:36:47.137Z,102110.50
2022-10-19T14:39:26.102Z,102110.91
2022-10-19T14:41:55.284Z,102118.63
2022-10-19T14:44:39.848Z,102121.66
2022-10-19T14:47:18.167Z,102109.84
2022-10-19T14:49:45.489Z,102122.66
2022-10-19T14:52:17.134Z,102116.59
2022-10-19T14:54:46.571Z,102124.91
2022-10-19T14:57:16.925Z,102125.06
2022-10-19T14:59:52.361Z,102129.66
2022-10-19T15:02:22.719Z,102124.25
2022-10-19T15:04:51.322Z,102125.72
2022-10-19T15:07:30.926Z,102125.00
2022-10-19T15:10:00.644Z,102128.84
2022-10-19T15:12:35.861Z,102143.22
2022-10-19T15:15:22.373Z,102143.13
2022-10-19T15:18:01.995Z,102149.63
2022-10-19T15:20:44.187Z,102153.13
2022-10-19T15:23:42.508Z,102155.88
2022-10-19T15:26:18.949Z,102146.53
2022-10-19T15:28:46.648Z,102146.63
2022-10-19T15:31:16.603Z,102148.84
2022-10-19T15:33:46.854Z,102153.03
2022-10-19T15:36:17.106Z,102154.81
2022-10-19T15:38:45.401Z,102169.19
2022-10-19T15:41:17.298Z,102159.34
2022-10-19T15:43:47.692Z,102168.19
2022-10-19T15:46:28.592Z,102167.59
2022-10-19T15:48:56.695Z,102163.16
2022-10-19T15:51:23.941Z,102169.78
2022-10-19T15:53:52.963Z,102169.31
2022-10-19T15:56:24.053Z,102169.63
2022-10-19T15:58:52.192Z,102181.72
2022-10-19T16:01:20.953Z,102184.25
2022-10-19T16:03:48.378Z,102182.31
2022-10-19T16:06:16.509Z,102178.50
2022-10-19T16:08:46.353Z,102180.25
2022-10-19T16:11:17.873Z,102186.28
2022-10-19T16:13:45.510Z,102193.19
2022-10-19T16:16:18.379Z,102191.94
2022-10-19T16:18:45.658Z,102202.38
2022-10-19T16:21:13.181Z,102203.66
2022-10-19T16:23:42.114Z,102203.84
2022-10-19T16:26:10.012Z,102200.22
2022-10-19T16:28:37.336Z,102197.78
2022-10-19T16:31:04.645Z,102204.13
2022-10-19T16:33:32.104Z,102210.16
2022-10-19T16:35:59.532Z,102209.34
2022-10-19T16:38:26.740Z,102215.50
2022-10-19T16:40:53.949Z,102211.09
2022-10-19T16:43:21.169Z,102215.59
2022-10-19T16:45:48.757Z,102216.81
2022-10-19T16:48:18.146Z,102225.94
2022-10-19T16:51:10.453Z,102223.91
2022-10-19T16:53:38.264Z,102224.31
2022-10-19T16:56:12.754Z,102224.91
2022-10-19T16:58:40.564Z,102223.22
2022-10-19T17:01:15.979Z,102222.44
2022-10-19T17:03:44.201Z,102229.41
2022-10-19T17:06:11.765Z,102224.75
2022-10-19T17:09:02.653Z,102235.25
2022-10-19T17:11:53.546Z,102228.13
2022-10-19T17:14:20.804Z,102238.22
2022-10-19T17:16:48.081Z,102244.13
2022-10-19T17:19:15.364Z,102242.56
2022-10-19T17:21:49.599Z,102243.75
2022-10-19T17:24:21.603Z,102251.53
2022-10-19T17:26:50.453Z,102247.78
2022-10-19T17:29:18.015Z,102250.50
2022-10-19T17:31:45.267Z,102254.69
2022-10-19T17:34:12.544Z,102252.75
2022-10-19T17:39:27.231Z,102244.66
2022-10-19T17:42:01.602Z,102252.84
2022-10-19T17:44:30.711Z,102251.44
2022-10-19T17:46:58.415Z,102249.75
2022-10-19T17:49:25.665Z,102252.66
2022-10-19T17:51:53.704Z,102253.47
2022-10-19T17:54:21.145Z,102260.03
2022-10-19T17:56:48.447Z,102262.16
2022-10-19T17:59:15.735Z,102264.31
2022-10-19T18:01:43.101Z,102269.16
2022-10-19T18:04:10.346Z,102276.69
2022-10-19T18:06:37.703Z,102271.34
2022-10-19T18:09:06.765Z,102274.06
2022-10-19T18:11:37.292Z,102285.69
2022-10-19T18:14:05.188Z,102278.66
2022-10-19T18:16:34.638Z,102259.22
2022-10-19T18:19:04.016Z,102282.91
2022-10-19T18:21:32.764Z,102283.84
2022-10-19T18:24:00.870Z,102280.56
2022-10-19T18:26:29.603Z,102285.19
2022-10-19T18:28:57.544Z,102289.09
2022-10-19T18:31:29.428Z,102291.03
2022-10-19T18:34:01.046Z,102287.44
2022-10-19T18:36:28.571Z,102289.69
2022-10-19T18:39:03.955Z,102287.16
2022-10-19T18:41:31.599Z,102297.59
2022-10-19T18:44:01.982Z,102299.34
2022-10-19T18:46:29.682Z,102303.78
2022-10-19T18:48:56.973Z,102295.59
2022-10-19T18:51:24.323Z,102304.00
2022-10-19T18:53:51.824Z,102311.94
2022-10-19T18:56:20.437Z,102305.72
2022-10-19T18:58:47.953Z,102302.25
2022-10-19T19:01:26.855Z,102307.28
2022-10-19T19:03:55.385Z,102299.31
2022-10-19T19:06:25.981Z,102305.91
2022-10-19T19:08:57.065Z,102302.84
2022-10-19T19:11:25.645Z,102301.84
2022-10-19T19:13:54.107Z,102308.84
2022-10-19T19:16:21.617Z,102306.41
2022-10-19T19:18:48.926Z,102299.53
2022-10-19T19:21:20.695Z,102304.00
2022-10-19T19:23:48.563Z,102314.63
2022-10-19T19:26:16.183Z,102326.69
2022-10-19T19:28:45.153Z,102333.81
2022-10-19T19:31:16.086Z,102330.91
2022-10-19T19:33:47.267Z,102328.47
2022-10-19T19:36:15.494Z,102330.13
2022-10-19T19:38:43.040Z,102328.00
2022-10-19T19:41:14.487Z,102329.75
2022-10-19T19:43:42.747Z,102329.66
2022-10-19T19:46:14.496Z,102332.72
2022-10-19T19:48:42.744Z,102335.47
2022-10-19T19:51:10.931Z,102339.53
2022-10-19T19:53:38.397Z,102335.81
2022-10-19T19:56:06.733Z,102329.88
2022-10-19T19:58:34.370Z,102333.47
2022-10-19T20:01:09.370Z,102348.41
2022-10-19T20:03:39.221Z,102354.38
2022-10-19T20:06:06.718Z,102355.16
2022-10-19T20:08:36.322Z,102347.44
2022-10-19T20:11:08.191Z,102345.06
2022-10-19T20:13:35.827Z,102347.78
2022-10-19T20:16:10.086Z,102344.88
2022-10-19T20:18:37.519Z,102339.38
2022-10-19T20:21:05.345Z,102337.41
2022-10-19T20:23:33.297Z,102335.25
2022-10-19T20:26:00.537Z,102344.94
2022-10-19T20:28:28.153Z,102341.28
2022-10-19T20:31:02.519Z,102350.91
2022-10-19T20:33:33.571Z,102347.00
2022-10-19T20:36:11.407Z,102346.03
2022-10-19T20:38:39.846Z,102353.81
2022-10-19T20:41:08.527Z,102352.91
2022-10-19T20:43:36.784Z,102351.31
2022-10-19T20:46:05.042Z,102358.97
2022-10-19T20:48:32.628Z,102367.06
2022-10-19T20:51:31.661Z,102373.59
2022-10-19T20:54:00.950Z,102374.13
2022-10-19T20:56:29.439Z,102375.41
2022-10-19T20:58:56.769Z,102374.50
2022-10-19T21:01:24.676Z,102377.16
2022-10-19T21:03:53.821Z,102368.31
2022-10-19T21:06:22.254Z,102388.22
2022-10-19T21:08:49.997Z,102372.22
2022-10-19T21:11:18.609Z,102388.84
2022-10-19T21:13:46.337Z,102402.78
2022-10-19T21:16:13.639Z,102391.28
2022-10-19T21:18:41.464Z,102390.94
2022-10-19T21:21:19.804Z,102388.56
2022-10-19T21:23:48.719Z,102398.94
2022-10-19T21:26:16.761Z,102388.00
2022-10-19T21:28:48.247Z,102395.38
2022-10-19T21:31:16.456Z,102394.47
2022-10-19T21:33:44.100Z,102390.22
2022-10-19T21:36:12.029Z,102390.38
2022-10-19T21:38:39.861Z,102384.97
2022-10-19T21:41:08.485Z,102382.03
2022-10-19T21:43:35.816Z,102379.84
2022-10-19T21:46:04.159Z,102379.59
2022-10-19T21:48:31.928Z,102379.13
2022-10-19T21:50:59.227Z,102374.81
2022-10-19T21:53:26.532Z,102374.53
2022-10-19T21:55:54.089Z,102369.66
2022-10-19T21:58:24.362Z,102376.28
2022-10-19T22:00:51.606Z,102373.50
2022-10-19T22:03:19.135Z,102368.78
2022-10-19T22:05:50.076Z,102369.84
2022-10-19T22:08:17.717Z,102370.94
2022-10-19T22:10:45.000Z,102366.28
2022-10-19T22:13:12.224Z,102367.19
2022-10-19T22:15:40.605Z,102357.22
2022-10-19T22:18:07.985Z,102366.84
2022-10-19T22:20:36.305Z,102360.47
2022-10-19T22:23:03.991Z,102366.69
2022-10-19T22:25:31.950Z,102362.28
2022-10-19T22:27:59.373Z,102354.41
2022-10-19T22:30:26.697Z,102356.19
2022-10-19T22:32:54.155Z,102358.91
2022-10-19T22:35:21.389Z,102358.13
2022-10-19T22:37:48.630Z,102359.34
2022-10-19T22:40:15.965Z,102353.00
2022-10-19T22:42:43.324Z,102354.09
2022-10-19T22:45:10.625Z,102346.75
2022-10-19T22:47:37.874Z,102344.31
2022-10-19T22:50:06.774Z,102335.94
2022-10-19T22:52:34.356Z,102346.03
2022-10-19T22:55:01.802Z,102343.41
2022-10-19T22:57:29.061Z,102337.97
2022-10-19T22:59:56.318Z,102343.13
2022-10-19T23:02:23.576Z,102341.41
2022-10-19T23:04:50.837Z,102349.56
2022-10-19T23:07:18.396Z,102355.13
2022-10-19T23:09:45.628Z,102361.28
2022-10-19T23:12:12.975Z,102354.75
2022-10-19T23:14:40.208Z,102365.03
2022-10-19T23:17:07.430Z,102355.47
2022-10-19T23:19:35.749Z,102357.06
2022-10-19T23:22:03.313Z,102358.44
2022-10-19T23:24:30.488Z,102357.03
2022-10-19T23:26:57.729Z,102353.66
2022-10-19T23:29:24.948Z,102360.72
2022-10-19T23:31:52.351Z,102363.00
2022-10-19T23:34:19.608Z,102360.72
2022-10-19T23:36:46.825Z,102364.78
2022-10-19T23:39:14.029Z,102361.28
2022-10-19T23:41:41.454Z,102360.91
2022-10-19T23:44:09.637Z,102351.97
2022-10-19T23:46:36.929Z,102356.13
2022-10-19T23:49:04.163Z,102349.94
2022-10-19T23:51:31.637Z,102347.59
2022-10-19T23:53:58.830Z,102358.06
2022-10-19T23:56:27.598Z,102347.03
2022-10-19T23:58:55.636Z,102349.91
